Latest Weather Observations for Esperance Airport

IDW60801

Issued at 5:35 pm WST Wednesday 23 July 2014 (issued every 30 minutes, with the page automatically refreshed every 10 minutes)

About weather observations | Map of weather stations | Latest weather observations for WA | Other Formats
Station Details ID: 009542 Name: ESPERANCE AERO Lat: -33.68 Lon: 121.83 Height: 142.0 m
Data from the previous 72 hours. | See also: Recent months at Esperance Airport
Date/Time
WST
Temp
°C
App
Temp
°C
Dew
Point
Rel
Hum
%
Delta-T
°C
Wind Press
QNH
hPa
Press
MSL
hPa
Rain
since 9 am
mm
Dir
 
Spd
km/h
Gust
km/h
Spd
kts
Gust
kts
23/05:30pm 11.1 8.6 11.1 100 0.0 WSW 15 17 8 9 1017.4 - 7.4
23/05:17pm 11.3 8.1 11.3 100 0.0 WSW 19 24 10 13 1017.4 - 7.4
23/05:02pm 11.4 6.5 11.2 99 0.1 SW 28 35 15 19 1017.4 - 7.4
23/05:00pm 11.4 6.8 11.2 99 0.1 SW 26 35 14 19 1017.4 - 7.4
23/04:38pm 11.3 6.7 11.1 99 0.1 SW 26 35 14 19 1017.3 - 7.2
23/04:30pm 11.7 7.2 11.5 99 0.1 WSW 26 35 14 19 1017.3 - 7.2
23/04:17pm 12.0 7.2 11.8 99 0.1 W 28 37 15 20 1017.2 - 7.0
23/04:02pm 12.2 7.1 12.0 99 0.1 WSW 30 35 16 19 1017.0 - 6.8
23/04:00pm 12.1 7.0 11.9 99 0.1 WSW 30 37 16 20 1017.0 - 6.8
23/03:43pm 12.2 6.6 12.0 99 0.1 WSW 33 46 18 25 1016.7 - 6.8
23/03:30pm 13.1 7.7 12.2 94 0.5 WSW 32 44 17 24 1016.4 - 6.8
23/03:08pm 12.7 9.4 12.7 100 0.0 SW 22 30 12 16 1016.4 - 6.8
23/03:01pm 12.6 8.9 12.6 100 0.0 SW 24 32 13 17 1016.3 - 6.8
23/03:00pm 12.4 8.2 12.4 100 0.0 WSW 26 35 14 19 1016.3 1016.4 6.8
23/02:30pm 12.0 6.0 12.0 100 0.0 WSW 35 50 19 27 1016.1 - 6.4
23/02:00pm 12.5 7.2 12.5 100 0.0 WSW 32 43 17 23 1016.0 - 5.6
23/01:30pm 12.9 8.5 12.9 100 0.0 W 28 41 15 22 1015.9 - 4.4
23/01:15pm 13.2 8.5 13.2 100 0.0 W 30 39 16 21 1015.8 - 3.6
23/01:00pm 13.6 9.0 13.6 100 0.0 W 30 35 16 19 1015.8 - 3.6
23/12:55pm 13.4 9.2 13.4 100 0.0 W 28 35 15 19 1015.9 - 3.6
23/12:49pm 13.3 9.4 13.3 100 0.0 W 26 33 14 18 1016.0 - 3.6
23/12:48pm 13.3 9.0 13.3 100 0.0 W 28 33 15 18 1016.0 - 3.6
23/12:30pm 13.0 9.0 13.0 100 0.0 W 26 35 14 19 1016.2 - 2.8
23/12:18pm 13.2 8.8 13.0 99 0.1 W 28 39 15 21 1016.4 - 1.8
23/12:11pm 14.4 11.6 14.2 99 0.1 W 22 32 12 17 1016.2 - 1.0
23/12:01pm 13.9 11.5 13.7 99 0.1 W 19 26 10 14 1016.4 - 1.0
23/12:00pm 14.0 11.6 13.8 99 0.1 W 19 24 10 13 1016.4 1016.5 1.0
23/11:30am 14.8 13.1 14.8 100 0.0 WNW 17 22 9 12 1016.9 - 1.0
23/11:00am 13.2 11.4 13.2 100 0.0 WNW 15 19 8 10 1017.5 - 1.0
23/10:30am 12.3 10.2 12.3 100 0.0 WNW 15 19 8 10 1017.9 - 1.0
23/10:21am 12.2 10.0 12.2 100 0.0 WNW 15 19 8 10 1018.0 - 1.0
23/10:00am 12.3 9.8 12.3 100 0.0 W 17 22 9 12 1018.0 - 0.8
23/09:30am 12.0 9.4 12.0 100 0.0 WNW 17 20 9 11 1017.9 - 0.0
23/09:00am 11.1 8.2 11.1 100 0.0 WNW 17 22 9 12 1017.8 1017.8 5.2
23/08:50am 11.1 7.9 11.1 100 0.0 WNW 19 24 10 13 1017.7 - 5.2
23/08:30am 10.8 7.5 10.8 100 0.0 WNW 19 24 10 13 1017.5 - 4.8
23/08:00am 10.1 6.9 10.1 100 0.0 NW 17 22 9 12 1017.0 - 4.8
23/07:30am 9.4 6.4 9.4 100 0.0 WNW 15 17 8 9 1016.5 - 4.8
23/07:00am 9.3 7.1 9.3 100 0.0 NW 11 15 6 8 1016.1 - 4.8
23/06:30am 9.5 6.9 9.5 100 0.0 WNW 13 17 7 9 1016.0 - 4.8
23/06:00am 9.6 7.1 9.6 100 0.0 WNW 13 15 7 8 1015.6 1015.7 4.8
23/05:30am 9.8 6.9 9.8 100 0.0 W 15 20 8 11 1015.5 - 4.8
23/05:00am 9.9 6.7 9.9 100 0.0 W 17 22 9 12 1015.2 - 4.8
23/04:30am 10.0 6.3 10.0 100 0.0 W 20 24 11 13 1015.4 - 4.8
23/04:15am 10.0 6.4 10.0 100 0.0 W 19 24 10 13 1015.3 - 4.8
23/04:00am 10.0 6.3 10.0 100 0.0 W 20 26 11 14 1015.2 - 4.8
23/03:30am 10.0 6.4 10.0 100 0.0 W 19 24 10 13 1015.3 - 4.8
23/03:00am 10.1 6.6 10.1 100 0.0 W 19 22 10 12 1015.1 1015.2 4.8
23/02:30am 10.1 6.9 10.1 100 0.0 W 17 20 9 11 1015.0 - 4.8
23/02:00am 10.0 6.8 10.0 100 0.0 W 17 20 9 11 1015.0 - 4.8
23/01:30am 10.0 6.4 10.0 100 0.0 W 19 22 10 12 1014.9 - 4.8
23/01:00am 9.9 5.7 9.9 100 0.0 W 22 28 12 15 1014.5 - 4.8
23/12:37am 9.8 5.6 9.7 99 0.1 W 22 28 12 15 1014.2 - 4.8
23/12:30am 9.7 5.5 9.6 99 0.1 W 22 28 12 15 1014.2 - 4.8
23/12:13am 9.8 5.6 9.7 99 0.1 W 22 30 12 16 1014.2 - 4.8
23/12:00am 9.8 5.2 9.8 100 0.0 W 24 30 13 16 1014.1 1014.2 4.8
 
Date/Time
WST
Temp
°C
App
Temp
°C
Dew
Point
Rel
Hum
%
Delta-T
°C
Wind Press
QNH
hPa
Press
MSL
hPa
Rain
since 9 am
mm
Dir
 
Spd
km/h
Gust
km/h
Spd
kts
Gust
kts
22/11:30pm 9.9 5.4 9.9 100 0.0 W 24 28 13 15 1014.0 - 4.8
22/11:18pm 10.0 5.5 10.0 100 0.0 W 24 30 13 16 1014.0 - 4.8
22/11:00pm 9.9 5.7 9.9 100 0.0 W 22 32 12 17 1014.0 - 4.8
22/10:30pm 10.2 6.5 10.2 100 0.0 W 20 28 11 15 1013.9 - 4.8
22/10:22pm 10.2 6.5 10.2 100 0.0 W 20 26 11 14 1013.9 - 4.8
22/10:00pm 10.3 6.6 10.3 100 0.0 W 20 26 11 14 1013.9 - 4.8
22/09:59pm 10.3 6.6 10.3 100 0.0 W 20 26 11 14 1014.0 - 4.8
22/09:57pm 10.3 6.3 10.3 100 0.0 W 22 26 12 14 1013.9 - 4.8
22/09:38pm 10.3 6.6 10.3 100 0.0 W 20 28 11 15 1013.9 - 4.8
22/09:31pm 10.2 6.1 10.2 100 0.0 W 22 26 12 14 1013.9 - 4.8
22/09:30pm 10.3 6.3 10.3 100 0.0 W 22 26 12 14 1013.9 - 4.8
22/09:00pm 10.1 6.4 10.1 100 0.0 W 20 26 11 14 1013.9 1013.9 4.6
22/08:58pm 10.1 6.4 10.1 100 0.0 W 20 26 11 14 1013.8 - 4.6
22/08:40pm 10.2 6.5 10.0 99 0.1 W 20 26 11 14 1013.7 - 4.4
22/08:36pm 10.2 6.5 10.0 99 0.1 W 20 24 11 13 1013.8 - 3.8
22/08:31pm 10.2 6.5 10.0 99 0.1 W 20 26 11 14 1013.7 - 3.6
22/08:30pm 10.2 6.5 10.0 99 0.1 W 20 28 11 15 1013.7 - 3.6
22/08:16pm 10.2 5.7 10.0 99 0.1 W 24 32 13 17 1013.6 - 3.2
22/08:00pm 10.3 5.4 10.1 99 0.1 W 26 33 14 18 1013.5 - 2.8
22/07:46pm 10.2 4.9 10.0 99 0.1 W 28 39 15 21 1013.4 - 2.8
22/07:30pm 10.2 4.9 10.0 99 0.1 W 28 35 15 19 1013.2 - 2.8
22/07:28pm 10.2 4.9 10.0 99 0.1 W 28 35 15 19 1013.2 - 2.8
22/07:00pm 10.3 5.4 10.1 99 0.1 W 26 35 14 19 1013.1 - 2.0
22/06:51pm 10.3 5.8 10.1 99 0.1 W 24 32 13 17 1013.1 - 2.0
22/06:40pm 10.3 5.8 10.1 99 0.1 W 24 32 13 17 1013.1 - 2.0
22/06:34pm 10.3 5.8 10.1 99 0.1 W 24 32 13 17 1013.0 - 2.0
22/06:30pm 10.3 5.4 10.1 99 0.1 W 26 32 14 17 1012.9 - 2.0
22/06:06pm 10.3 6.8 10.1 99 0.1 W 19 22 10 12 1012.8 - 1.8
22/06:00pm 10.3 6.8 10.1 99 0.1 W 19 22 10 12 1012.7 1012.7 1.8
22/05:30pm 10.7 6.2 9.9 95 0.4 W 24 35 13 19 1012.6 - 1.8
22/05:00pm 10.6 7.0 9.8 95 0.4 WNW 19 24 10 13 1012.3 - 1.8
22/04:30pm 11.0 6.4 9.8 92 0.6 W 24 32 13 17 1011.9 - 1.8
22/04:00pm 11.0 7.3 10.1 94 0.5 W 20 28 11 15 1011.8 - 1.8
22/03:30pm 11.3 5.3 10.0 92 0.7 W 32 41 17 22 1011.4 - 1.8
22/03:00pm 12.3 6.2 9.7 84 1.3 W 32 39 17 21 1011.3 1011.3 1.8
22/02:30pm 13.5 7.9 10.3 81 1.7 WNW 30 39 16 21 1011.0 - 1.8
22/02:28pm 13.8 8.6 10.4 80 1.8 WNW 28 39 15 21 1010.9 - 1.8
22/02:00pm 13.4 11.3 12.5 94 0.5 N 15 19 8 10 1010.6 - 1.8
22/01:30pm 13.2 10.8 11.4 89 1.0 N 15 20 8 11 1010.6 - 1.8
22/01:00pm 13.3 10.5 11.4 88 1.0 N 17 20 9 11 1010.8 - 1.8
22/12:30pm 13.1 10.5 12.0 93 0.6 N 17 22 9 12 1011.5 - 1.8
22/12:00pm 12.6 9.5 11.5 93 0.6 NNW 19 24 10 13 1012.2 1012.2 1.8
22/11:30am 12.1 9.0 11.6 97 0.3 NW 19 28 10 15 1012.6 - 1.8
22/11:00am 11.4 8.4 10.6 95 0.4 NNW 17 22 9 12 1012.8 - 1.6
22/10:52am 11.5 8.1 10.6 94 0.5 NNW 19 26 10 14 1013.1 - 1.2
22/10:33am 12.2 7.0 10.4 89 0.9 N 28 41 15 22 1013.3 - 0.8
22/10:30am 12.7 7.7 10.9 89 0.9 N 28 41 15 22 1013.3 - 0.6
22/10:00am 14.2 10.2 10.6 79 1.9 N 22 32 12 17 1012.9 - 0.0
22/09:30am 12.6 8.4 9.6 82 1.5 N 22 28 12 15 1013.3 - 0.0
22/09:00am 12.0 7.7 9.2 83 1.4 N 22 35 12 19 1013.4 1013.4 0.0
22/08:30am 11.3 6.8 8.7 84 1.3 NNE 22 30 12 16 1013.4 - 0.0
22/08:00am 9.9 5.2 7.8 87 1.0 NNE 22 32 12 17 1013.7 - 0.0
22/07:30am 9.2 4.4 7.3 88 0.9 NNE 22 33 12 18 1013.7 - 0.0
22/07:00am 9.1 4.7 7.2 88 0.9 NNE 20 28 11 15 1013.6 - 0.0
22/06:30am 9.3 5.4 7.3 87 1.0 N 17 22 9 12 1013.6 - 0.0
22/06:00am 9.6 5.4 7.4 86 1.1 NNE 19 24 10 13 1013.7 1013.7 0.0
22/05:30am 9.4 5.5 7.3 87 1.0 NNE 17 24 9 13 1013.7 - 0.0
22/05:00am 9.0 5.2 7.5 90 0.7 N 17 20 9 11 1013.9 - 0.0
22/04:30am 9.1 5.0 7.7 91 0.7 N 19 22 10 12 1014.4 - 0.0
22/04:00am 9.5 5.8 7.8 89 0.8 N 17 20 9 11 1014.5 - 0.0
22/03:30am 8.7 4.9 7.5 92 0.6 N 17 20 9 11 1014.8 - 0.0
22/03:00am 7.9 4.0 7.1 95 0.4 N 17 20 9 11 1014.9 1015.0 0.0
22/02:30am 7.4 3.8 6.7 95 0.3 N 15 19 8 10 1015.1 - 0.0
22/02:00am 8.3 3.9 7.2 93 0.5 N 20 24 11 13 1014.9 - 0.0
22/01:30am 7.8 3.5 7.2 96 0.3 N 19 22 10 12 1015.3 - 0.0
22/01:00am 7.8 4.3 7.2 96 0.3 N 15 17 8 9 1015.5 - 0.0
22/12:30am 8.3 5.2 7.4 94 0.4 N 13 15 7 8 1015.6 - 0.0
22/12:00am 9.2 6.3 8.1 93 0.5 N 13 17 7 9 1015.9 1016.0 0.0
 
Date/Time
WST
Temp
°C
App
Temp
°C
Dew
Point
Rel
Hum
%
Delta-T
°C
Wind Press
QNH
hPa
Press
MSL
hPa
Rain
since 9 am
mm
Dir
 
Spd
km/h
Gust
km/h
Spd
kts
Gust
kts
21/11:30pm 8.9 6.0 8.0 94 0.4 N 13 15 7 8 1016.1 - 0.0
21/11:00pm 8.5 5.5 7.6 94 0.4 N 13 17 7 9 1016.1 - 0.0
21/10:30pm 9.1 6.2 8.0 93 0.5 N 13 15 7 8 1016.3 - 0.0
21/10:00pm 9.7 7.2 8.0 89 0.8 N 11 13 6 7 1016.3 - 0.0
21/09:30pm 11.7 8.6 8.7 82 1.5 NNW 15 19 8 10 1016.5 - 0.0
21/09:00pm 11.9 8.5 9.1 83 1.4 N 17 20 9 11 1016.4 1016.5 0.0
21/08:30pm 12.2 8.5 9.4 83 1.4 N 19 20 10 11 1016.3 - 0.0
21/08:00pm 12.8 8.9 9.6 81 1.6 N 20 24 11 13 1016.2 - 0.0
21/07:30pm 13.1 9.5 9.7 80 1.8 N 19 22 10 12 1016.2 - 0.0
21/07:00pm 13.3 10.5 9.9 80 1.8 N 15 19 8 10 1016.2 - 0.0
21/06:30pm 13.8 11.3 9.8 77 2.1 NNE 13 17 7 9 1015.8 - 0.0
21/06:00pm 14.3 12.3 10.1 76 2.2 NNE 11 15 6 8 1015.6 1015.7 0.0
21/05:30pm 14.9 13.3 10.1 73 2.5 NNE 9 11 5 6 1015.6 - 0.0
21/05:00pm 15.5 14.6 10.5 72 2.7 NE 6 7 3 4 1015.4 - 0.0
21/04:30pm 17.0 16.1 10.8 67 3.3 N 6 7 3 4 1015.3 - 0.0
21/04:00pm 17.5 16.3 10.4 63 3.8 N 7 11 4 6 1015.3 - 0.0
21/03:30pm 18.1 17.0 10.7 62 4.0 WNW 7 13 4 7 1015.2 - 0.0
21/03:00pm 17.3 15.5 10.7 65 3.6 NW 11 15 6 8 1015.2 1015.3 0.0
21/02:30pm 17.9 15.6 10.3 61 4.1 WNW 13 17 7 9 1015.1 - 0.0
21/02:00pm 17.6 15.2 10.0 61 4.0 WNW 13 19 7 10 1015.3 - 0.0
21/01:30pm 17.2 13.6 9.9 62 3.9 W 19 22 10 12 1015.4 - 0.0
21/01:00pm 17.3 15.2 11.1 67 3.4 WNW 13 20 7 11 1015.6 - 0.0
21/12:30pm 17.0 14.1 11.1 68 3.2 WNW 17 22 9 12 1015.9 - 0.0
21/12:00pm 16.4 13.4 10.7 69 3.1 WNW 17 24 9 13 1016.3 1016.4 0.0
21/11:30am 16.5 14.1 12.7 78 2.1 WNW 17 20 9 11 1016.7 - 0.0
21/11:00am 15.7 13.7 12.8 83 1.6 WNW 15 20 8 11 1017.1 - 0.0
21/10:30am 14.1 11.7 11.4 84 1.4 WNW 15 19 8 10 1017.3 - 0.0
21/10:00am 13.5 11.2 11.6 88 1.0 WNW 15 17 8 9 1017.4 - 0.0
21/09:30am 12.5 10.4 11.1 91 0.7 NW 13 15 7 8 1017.4 - 0.0
21/09:00am 11.5 9.2 10.6 94 0.5 NW 13 15 7 8 1017.3 1017.3 9.0
21/08:30am 10.3 7.8 9.8 97 0.3 NW 13 15 7 8 1017.2 - 9.0
21/08:00am 8.9 5.8 8.8 99 0.0 NW 15 20 8 11 1016.7 - 9.0
21/07:30am 7.6 4.9 7.5 99 0.0 NW 11 15 6 8 1016.6 - 9.0
21/07:00am 6.7 3.4 6.6 99 0.0 NW 13 15 7 8 1016.4 - 9.0
21/06:30am 6.6 3.3 6.5 99 0.0 NW 13 17 7 9 1016.0 - 9.0
21/06:00am 6.6 3.3 6.5 99 0.0 NW 13 15 7 8 1015.7 1015.8 9.0
21/05:30am 7.0 3.8 6.9 99 0.0 NNW 13 17 7 9 1015.3 - 9.0
21/05:00am 7.1 3.6 7.0 99 0.0 NW 15 17 8 9 1015.2 - 9.0
21/04:30am 7.6 4.2 7.5 99 0.0 NW 15 20 8 11 1014.9 - 9.0
21/04:00am 7.1 3.9 7.0 99 0.0 NW 13 17 7 9 1014.6 - 9.0
21/03:30am 6.9 3.7 6.8 99 0.0 WNW 13 15 7 8 1014.6 - 9.0
21/03:00am 7.0 3.8 6.9 99 0.0 WNW 13 15 7 8 1014.7 1014.8 9.0
21/02:30am 7.5 4.0 7.4 99 0.0 NW 15 17 8 9 1014.8 - 9.0
21/02:00am 7.8 4.8 7.7 99 0.0 NW 13 17 7 9 1014.6 - 9.0
21/01:30am 7.6 4.6 7.5 99 0.0 N 13 15 7 8 1014.2 - 9.0
21/01:00am 7.8 4.8 7.7 99 0.0 N 13 13 7 7 1013.9 - 9.0
21/12:30am 7.8 4.8 7.7 99 0.0 N 13 17 7 9 1014.1 - 9.0
21/12:00am 7.4 4.7 7.3 99 0.0 NNW 11 13 6 7 1014.4 1014.5 9.0
 
Date/Time
WST
Temp
°C
App
Temp
°C
Dew
Point
Rel
Hum
%
Delta-T
°C
Wind Press
QNH
hPa
Press
MSL
hPa
Rain
since 9 am
mm
Dir
 
Spd
km/h
Gust
km/h
Spd
kts
Gust
kts
20/11:30pm 8.1 4.8 8.0 99 0.0 N 15 17 8 9 1014.8 - 9.0
20/11:00pm 8.3 6.2 8.2 99 0.0 N 9 13 5 7 1015.0 - 8.8
20/10:30pm 7.8 5.2 7.7 99 0.0 N 11 13 6 7 1015.0 - 8.8
20/10:00pm 8.6 6.2 8.5 99 0.0 N 11 13 6 7 1015.1 - 8.8
20/09:30pm 8.9 5.8 8.8 99 0.0 N 15 17 8 9 1015.1 - 8.8
20/09:00pm 9.1 6.4 9.0 99 0.0 NNE 13 17 7 9 1015.1 1015.2 8.8
20/08:30pm 9.2 6.2 9.1 99 0.0 N 15 19 8 10 1015.1 - 8.8
20/08:00pm 9.5 6.5 9.4 99 0.0 NNE 15 17 8 9 1015.0 - 8.8
20/07:30pm 9.6 8.4 9.5 99 0.1 ENE 6 9 3 5 1014.7 - 8.8
20/07:00pm 9.2 9.0 9.1 99 0.0 CALM 0 0 0 0 1014.2 - 8.8
20/06:30pm 10.7 9.5 10.2 97 0.3 SSE 7 9 4 5 1014.0 - 8.8
20/06:00pm 11.5 9.5 10.2 92 0.7 ENE 11 17 6 9 1014.0 1014.0 8.8

Other Formats:

Comma delimited format used in spreadsheet applications
http://www.bom.gov.au/fwo/IDW60801/IDW60801.95638.axf

JavaScript Object Notation format (JSON) in row-major order
http://www.bom.gov.au/fwo/IDW60801/IDW60801.95638.json